SAS875 ESGG-EKCH
Flight info
| Callsign | SAS875 |
|---|---|
| Flight time | 0h 32m |
| Altitude | 19000 |
| Route | TOPLA L996 ERNOV |
| Aircraft | A20N/M-SDE2E3FGHIRWXY/LB1 |
Departure
| Time | 2026-05-05 17:29 |
|---|---|
| Airport | Göteborg Landvetter Airport (ESGG) |
Arrival
| Time | 2026-05-05 18:01 |
|---|---|
| Airport | Copenhagen Kastrup Airport (EKCH) |
| Time | Latitude | Longitude | Altitude | Speed | Heading |
|---|---|---|---|---|---|
| 2026-05-05 17:06 | 57.66777 | 12.29317 | 526 ft | 0 kts | 117° |
| 2026-05-05 17:19 | 57.66780 | 12.29307 | 526 ft | 4 kts | 116° |
| 2026-05-05 17:20 | 57.66791 | 12.29261 | 526 ft | 4 kts | 106° |
| 2026-05-05 17:20 | 57.66796 | 12.29212 | 526 ft | 4 kts | 82° |
| 2026-05-05 17:20 | 57.66787 | 12.29177 | 526 ft | 1 kts | 26° |
| 2026-05-05 17:20 | 57.66783 | 12.29173 | 526 ft | 0 kts | 26° |
| 2026-05-05 17:24 | 57.66784 | 12.29175 | 526 ft | 2 kts | 26° |
| 2026-05-05 17:24 | 57.66835 | 12.29221 | 527 ft | 16 kts | 26° |
| 2026-05-05 17:25 | 57.66963 | 12.29335 | 528 ft | 22 kts | 25° |
| 2026-05-05 17:25 | 57.67058 | 12.29419 | 529 ft | 24 kts | 25° |
| 2026-05-05 17:25 | 57.67203 | 12.29511 | 530 ft | 7 kts | 325° |
| 2026-05-05 17:25 | 57.67234 | 12.29389 | 530 ft | 16 kts | 294° |
| 2026-05-05 17:26 | 57.67296 | 12.29238 | 531 ft | 11 kts | 338° |
| 2026-05-05 17:26 | 57.67331 | 12.29269 | 531 ft | 8 kts | 43° |
| 2026-05-05 17:26 | 57.67409 | 12.29344 | 532 ft | 17 kts | 7° |
| 2026-05-05 17:26 | 57.67457 | 12.29275 | 532 ft | 2 kts | 276° |
| 2026-05-05 17:27 | 57.67457 | 12.29270 | 532 ft | 0 kts | 276° |
| 2026-05-05 17:27 | 57.67457 | 12.29269 | 532 ft | 1 kts | 276° |
| 2026-05-05 17:28 | 57.67458 | 12.29192 | 531 ft | 9 kts | 268° |
| 2026-05-05 17:28 | 57.67417 | 12.29030 | 530 ft | 17 kts | 226° |
| 2026-05-05 17:28 | 57.67376 | 12.28975 | 530 ft | 3 kts | 209° |
| 2026-05-05 17:28 | 57.67080 | 12.28706 | 530 ft | 94 kts | 206° |
| 2026-05-05 17:29 | 57.66266 | 12.27951 | 528 ft | 162 kts | 205° |
| 2026-05-05 17:29 | 57.65220 | 12.27090 | 1292 ft | 163 kts | 208° |
| 2026-05-05 17:29 | 57.64192 | 12.26199 | 2285 ft | 161 kts | 209° |
| 2026-05-05 17:29 | 57.63130 | 12.25206 | 2908 ft | 181 kts | 210° |
| 2026-05-05 17:30 | 57.61939 | 12.24050 | 3661 ft | 205 kts | 211° |
| 2026-05-05 17:30 | 57.60596 | 12.22746 | 4516 ft | 233 kts | 210° |
| 2026-05-05 17:30 | 57.59051 | 12.21318 | 4883 ft | 257 kts | 203° |
| 2026-05-05 17:30 | 57.57253 | 12.20929 | 4999 ft | 268 kts | 175° |
| 2026-05-05 17:31 | 57.55484 | 12.22079 | 5008 ft | 273 kts | 156° |
| 2026-05-05 17:31 | 57.53718 | 12.23283 | 5012 ft | 269 kts | 169° |
| 2026-05-05 17:31 | 57.51876 | 12.23907 | 5058 ft | 271 kts | 175° |
| 2026-05-05 17:31 | 57.49991 | 12.24338 | 5686 ft | 274 kts | 176° |
| 2026-05-05 17:32 | 57.48104 | 12.24758 | 7134 ft | 271 kts | 177° |
| 2026-05-05 17:32 | 57.46212 | 12.25208 | 8616 ft | 278 kts | 177° |
| 2026-05-05 17:32 | 57.44269 | 12.25699 | 10007 ft | 286 kts | 177° |
| 2026-05-05 17:32 | 57.42246 | 12.26231 | 11034 ft | 305 kts | 178° |
| 2026-05-05 17:33 | 57.40054 | 12.26811 | 11791 ft | 330 kts | 178° |
| 2026-05-05 17:33 | 57.37722 | 12.27439 | 12784 ft | 343 kts | 178° |
| 2026-05-05 17:33 | 57.35348 | 12.28096 | 14048 ft | 348 kts | 179° |
| 2026-05-05 17:33 | 57.32937 | 12.28759 | 15174 ft | 353 kts | 179° |
| 2026-05-05 17:34 | 57.30485 | 12.29421 | 16232 ft | 359 kts | 179° |
| 2026-05-05 17:34 | 57.28000 | 12.30089 | 17328 ft | 364 kts | 179° |
| 2026-05-05 17:34 | 57.25467 | 12.30768 | 18272 ft | 370 kts | 179° |
| 2026-05-05 17:34 | 57.22904 | 12.31453 | 18678 ft | 374 kts | 179° |
| 2026-05-05 17:35 | 57.20323 | 12.32143 | 18866 ft | 375 kts | 179° |
| 2026-05-05 17:35 | 57.17781 | 12.32820 | 18941 ft | 375 kts | 179° |
| 2026-05-05 17:35 | 57.15157 | 12.33517 | 18950 ft | 375 kts | 179° |
| 2026-05-05 17:35 | 57.12578 | 12.34198 | 18951 ft | 375 kts | 179° |
| 2026-05-05 17:36 | 57.10029 | 12.34841 | 18947 ft | 375 kts | 180° |
| 2026-05-05 17:36 | 57.07408 | 12.35483 | 18948 ft | 375 kts | 180° |
| 2026-05-05 17:36 | 57.04823 | 12.36114 | 18950 ft | 375 kts | 180° |
| 2026-05-05 17:36 | 57.02275 | 12.36735 | 18944 ft | 375 kts | 179° |
| 2026-05-05 17:37 | 56.99653 | 12.37377 | 18947 ft | 375 kts | 179° |
| 2026-05-05 17:37 | 56.97943 | 12.37797 | 18946 ft | 375 kts | 179° |
| 2026-05-05 17:37 | 56.94522 | 12.38641 | 18949 ft | 374 kts | 179° |
| 2026-05-05 17:37 | 56.91938 | 12.39277 | 18948 ft | 375 kts | 179° |
| 2026-05-05 17:38 | 56.89354 | 12.39913 | 18934 ft | 375 kts | 179° |
| 2026-05-05 17:38 | 56.86766 | 12.40548 | 18946 ft | 375 kts | 180° |
| 2026-05-05 17:38 | 56.84182 | 12.41182 | 18944 ft | 375 kts | 180° |
| 2026-05-05 17:38 | 56.81592 | 12.41817 | 18944 ft | 375 kts | 180° |
| 2026-05-05 17:39 | 56.79005 | 12.42451 | 18943 ft | 375 kts | 180° |
| 2026-05-05 17:39 | 56.76419 | 12.43082 | 18943 ft | 375 kts | 180° |
| 2026-05-05 17:39 | 56.73829 | 12.43712 | 18939 ft | 376 kts | 179° |
| 2026-05-05 17:39 | 56.71241 | 12.44342 | 18941 ft | 376 kts | 179° |
| 2026-05-05 17:40 | 56.68649 | 12.44973 | 18941 ft | 376 kts | 179° |
| 2026-05-05 17:40 | 56.66059 | 12.45603 | 18941 ft | 376 kts | 179° |
| 2026-05-05 17:40 | 56.63472 | 12.46231 | 18942 ft | 376 kts | 179° |
| 2026-05-05 17:40 | 56.60881 | 12.46859 | 18943 ft | 375 kts | 179° |
| 2026-05-05 17:41 | 56.58291 | 12.47487 | 18943 ft | 375 kts | 179° |
| 2026-05-05 17:41 | 56.55703 | 12.48114 | 18943 ft | 375 kts | 179° |
| 2026-05-05 17:41 | 56.53115 | 12.48739 | 18907 ft | 374 kts | 179° |
| 2026-05-05 17:41 | 56.50545 | 12.49361 | 18560 ft | 371 kts | 179° |
| 2026-05-05 17:42 | 56.47987 | 12.49977 | 18004 ft | 371 kts | 179° |
| 2026-05-05 17:42 | 56.45433 | 12.50586 | 17280 ft | 369 kts | 179° |
| 2026-05-05 17:42 | 56.42905 | 12.51192 | 16572 ft | 364 kts | 179° |
| 2026-05-05 17:42 | 56.40410 | 12.51790 | 15876 ft | 360 kts | 179° |
| 2026-05-05 17:43 | 56.37938 | 12.52379 | 15196 ft | 356 kts | 178° |
| 2026-05-05 17:43 | 56.35492 | 12.52960 | 14529 ft | 353 kts | 178° |
| 2026-05-05 17:43 | 56.33176 | 12.53509 | 13924 ft | 350 kts | 178° |
| 2026-05-05 17:43 | 56.31474 | 12.53912 | 13419 ft | 348 kts | 178° |
| 2026-05-05 17:44 | 56.29087 | 12.54475 | 12698 ft | 345 kts | 178° |
| 2026-05-05 17:44 | 56.26714 | 12.55035 | 11997 ft | 342 kts | 177° |
| 2026-05-05 17:44 | 56.24362 | 12.55588 | 11350 ft | 339 kts | 176° |
| 2026-05-05 17:44 | 56.22067 | 12.56133 | 11056 ft | 325 kts | 176° |
| 2026-05-05 17:45 | 56.19884 | 12.56658 | 10938 ft | 307 kts | 177° |
| 2026-05-05 17:45 | 56.17837 | 12.57152 | 10943 ft | 291 kts | 177° |
| 2026-05-05 17:45 | 56.15809 | 12.57413 | 10943 ft | 292 kts | 185° |
| 2026-05-05 17:45 | 56.13785 | 12.57414 | 10940 ft | 290 kts | 185° |
| 2026-05-05 17:46 | 56.11766 | 12.57420 | 10876 ft | 290 kts | 185° |
| 2026-05-05 17:46 | 56.09744 | 12.57433 | 10673 ft | 290 kts | 184° |
| 2026-05-05 17:46 | 56.07735 | 12.57450 | 10429 ft | 288 kts | 184° |
| 2026-05-05 17:46 | 56.05728 | 12.57470 | 10185 ft | 288 kts | 184° |
| 2026-05-05 17:47 | 56.03729 | 12.57489 | 9943 ft | 287 kts | 184° |
| 2026-05-05 17:47 | 56.01733 | 12.57510 | 9681 ft | 286 kts | 184° |
| 2026-05-05 17:47 | 55.99745 | 12.57529 | 9403 ft | 285 kts | 184° |
| 2026-05-05 17:47 | 55.97763 | 12.57548 | 9139 ft | 285 kts | 183° |
| 2026-05-05 17:48 | 55.95783 | 12.57567 | 8872 ft | 284 kts | 183° |
| 2026-05-05 17:48 | 55.93806 | 12.57587 | 8608 ft | 284 kts | 183° |
| 2026-05-05 17:48 | 55.91839 | 12.57606 | 8337 ft | 283 kts | 182° |
| 2026-05-05 17:48 | 55.89869 | 12.57626 | 8078 ft | 283 kts | 182° |
| 2026-05-05 17:49 | 55.87909 | 12.57565 | 7820 ft | 281 kts | 188° |
| 2026-05-05 17:49 | 55.86001 | 12.56929 | 7561 ft | 278 kts | 199° |
| 2026-05-05 17:49 | 55.84188 | 12.55779 | 7313 ft | 277 kts | 203° |
| 2026-05-05 17:49 | 55.82376 | 12.54582 | 7062 ft | 278 kts | 203° |
| 2026-05-05 17:50 | 55.80564 | 12.53390 | 6813 ft | 276 kts | 201° |
| 2026-05-05 17:50 | 55.78747 | 12.52209 | 6564 ft | 280 kts | 201° |
| 2026-05-05 17:50 | 55.76934 | 12.51035 | 6309 ft | 275 kts | 201° |
| 2026-05-05 17:50 | 55.75131 | 12.49874 | 6054 ft | 278 kts | 201° |
| 2026-05-05 17:51 | 55.73307 | 12.48704 | 5800 ft | 279 kts | 201° |
| 2026-05-05 17:51 | 55.71491 | 12.47536 | 5530 ft | 275 kts | 201° |
| 2026-05-05 17:51 | 55.69667 | 12.46364 | 5278 ft | 282 kts | 201° |
| 2026-05-05 17:51 | 55.67844 | 12.45191 | 5032 ft | 276 kts | 201° |
| 2026-05-05 17:52 | 55.66055 | 12.44038 | 4946 ft | 274 kts | 200° |
| 2026-05-05 17:52 | 55.64249 | 12.42880 | 4938 ft | 275 kts | 200° |
| 2026-05-05 17:52 | 55.62449 | 12.41728 | 4940 ft | 274 kts | 200° |
| 2026-05-05 17:52 | 55.60674 | 12.40500 | 4936 ft | 276 kts | 206° |
| 2026-05-05 17:53 | 55.59038 | 12.38698 | 4785 ft | 276 kts | 219° |
| 2026-05-05 17:53 | 55.57601 | 12.36486 | 4536 ft | 276 kts | 222° |
| 2026-05-05 17:53 | 55.56174 | 12.34262 | 4275 ft | 270 kts | 222° |
| 2026-05-05 17:53 | 55.54789 | 12.32118 | 4073 ft | 259 kts | 221° |
| 2026-05-05 17:54 | 55.53466 | 12.30087 | 3996 ft | 245 kts | 221° |
| 2026-05-05 17:54 | 55.52112 | 12.28426 | 3999 ft | 242 kts | 202° |
| 2026-05-05 17:54 | 55.50492 | 12.28027 | 3994 ft | 240 kts | 170° |
| 2026-05-05 17:54 | 55.48981 | 12.29131 | 3967 ft | 233 kts | 139° |
| 2026-05-05 17:55 | 55.48036 | 12.31349 | 3685 ft | 225 kts | 109° |
| 2026-05-05 17:55 | 55.47594 | 12.34011 | 3198 ft | 228 kts | 100° |
| 2026-05-05 17:55 | 55.47422 | 12.36750 | 2766 ft | 223 kts | 78° |
| 2026-05-05 17:55 | 55.47910 | 12.39246 | 2593 ft | 209 kts | 65° |
| 2026-05-05 17:56 | 55.48448 | 12.41547 | 2503 ft | 197 kts | 65° |
| 2026-05-05 17:56 | 55.48948 | 12.43660 | 2442 ft | 175 kts | 60° |
| 2026-05-05 17:56 | 55.49593 | 12.45306 | 2205 ft | 152 kts | 46° |
| 2026-05-05 17:56 | 55.50267 | 12.46515 | 2109 ft | 124 kts | 40° |
| 2026-05-05 17:57 | 55.50875 | 12.47481 | 2051 ft | 117 kts | 38° |
| 2026-05-05 17:57 | 55.51477 | 12.48410 | 1995 ft | 113 kts | 38° |
| 2026-05-05 17:57 | 55.52074 | 12.49331 | 1887 ft | 113 kts | 38° |
| 2026-05-05 17:57 | 55.52665 | 12.50240 | 1758 ft | 114 kts | 38° |
| 2026-05-05 17:58 | 55.53251 | 12.51143 | 1615 ft | 112 kts | 38° |
| 2026-05-05 17:58 | 55.53837 | 12.52045 | 1466 ft | 111 kts | 38° |
| 2026-05-05 17:58 | 55.54425 | 12.52952 | 1310 ft | 113 kts | 38° |
| 2026-05-05 17:58 | 55.55015 | 12.53861 | 1161 ft | 113 kts | 39° |
| 2026-05-05 17:59 | 55.55602 | 12.54769 | 1012 ft | 112 kts | 38° |
| 2026-05-05 17:59 | 55.56192 | 12.55670 | 860 ft | 111 kts | 38° |
| 2026-05-05 17:59 | 55.56780 | 12.56570 | 695 ft | 112 kts | 39° |
| 2026-05-05 17:59 | 55.57358 | 12.57510 | 520 ft | 113 kts | 38° |
| 2026-05-05 18:00 | 55.57954 | 12.58418 | 383 ft | 113 kts | 37° |
| 2026-05-05 18:00 | 55.58547 | 12.59312 | 220 ft | 112 kts | 39° |
| 2026-05-05 18:00 | 55.59130 | 12.60224 | 101 ft | 112 kts | 37° |
| 2026-05-05 18:00 | 55.59712 | 12.61104 | 18 ft | 102 kts | 38° |
| 2026-05-05 18:01 | 55.60123 | 12.61739 | 19 ft | 55 kts | 42° |
| 2026-05-05 18:01 | 55.60374 | 12.62131 | 17 ft | 46 kts | 40° |
| 2026-05-05 18:01 | 55.60618 | 12.62338 | 19 ft | 28 kts | 11° |
| 2026-05-05 18:01 | 55.60675 | 12.62358 | 18 ft | 0 kts | 11° |
| 2026-05-05 18:02 | 55.60676 | 12.62359 | 18 ft | 2 kts | 11° |
| 2026-05-05 18:03 | 55.60738 | 12.62383 | 17 ft | 15 kts | 14° |
| 2026-05-05 18:03 | 55.60854 | 12.62502 | 17 ft | 23 kts | 39° |
| 2026-05-05 18:03 | 55.60983 | 12.62694 | 17 ft | 25 kts | 39° |
| 2026-05-05 18:03 | 55.61104 | 12.62884 | 17 ft | 22 kts | 42° |
| 2026-05-05 18:04 | 55.61226 | 12.63075 | 17 ft | 24 kts | 40° |
| 2026-05-05 18:04 | 55.61358 | 12.63279 | 17 ft | 26 kts | 40° |
| 2026-05-05 18:04 | 55.61501 | 12.63499 | 17 ft | 28 kts | 41° |
| 2026-05-05 18:04 | 55.61639 | 12.63711 | 17 ft | 25 kts | 42° |
| 2026-05-05 18:05 | 55.61768 | 12.63913 | 17 ft | 22 kts | 41° |
| 2026-05-05 18:05 | 55.61892 | 12.64087 | 18 ft | 24 kts | 28° |
| 2026-05-05 18:05 | 55.62033 | 12.64202 | 19 ft | 23 kts | 25° |
| 2026-05-05 18:05 | 55.62178 | 12.64326 | 17 ft | 25 kts | 26° |
| 2026-05-05 18:06 | 55.62270 | 12.64489 | 16 ft | 16 kts | 66° |
| 2026-05-05 18:06 | 55.62303 | 12.64619 | 19 ft | 19 kts | 66° |
| 2026-05-05 18:06 | 55.62329 | 12.64932 | 17 ft | 21 kts | 126° |
| 2026-05-05 18:06 | 55.62277 | 12.65159 | 17 ft | 16 kts | 69° |
| 2026-05-05 18:07 | 55.62341 | 12.65212 | 18 ft | 11 kts | 346° |
| 2026-05-05 18:07 | 55.62458 | 12.65198 | 17 ft | 21 kts | 359° |
| 2026-05-05 18:07 | 55.62600 | 12.65193 | 18 ft | 15 kts | 359° |
| 2026-05-05 18:07 | 55.62660 | 12.65272 | 17 ft | 4 kts | 99° |
| 2026-05-05 18:08 | 55.62658 | 12.65347 | 17 ft | 6 kts | 47° |
| 2026-05-05 18:08 | 55.62701 | 12.65396 | 18 ft | 1 kts | 27° |
| 2026-05-05 18:08 | 55.62707 | 12.65402 | 17 ft | 0 kts | 27° |